Time;durP1;ratioP1;P1;durP2;ratioP2;P2;SDS_P1;SDS_P2;PMS_P1;PMS_P2;Temp;Humidity;BMP_temperature;BMP_pressure;BME280_temperature;BME280_humidity;BME280_pressure;Samples;Min_cycle;Max_cycle;Signal;HPM_P1;HPM_P2
2023/07/11 00:00:57;;;;;;;9.55;2.58;;;17.80;99.90;;;;;;5055054;28;20040;-40
2023/07/11 00:03:23;;;;;;;6.20;2.35;;;17.80;99.90;;;;;;5065474;28;20044;-40
2023/07/11 00:05:59;;;;;;;5.13;2.30;;;17.80;99.90;;;;;;5054588;28;20428;-43
2023/07/11 00:08:24;;;;;;;6.70;2.38;;;17.80;99.90;;;;;;5052595;28;20426;-40
2023/07/11 00:10:50;;;;;;;4.97;2.47;;;17.80;99.90;;;;;;5054692;28;20037;-39
2023/07/11 00:13:16;;;;;;;6.72;2.25;;;17.80;99.90;;;;;;5055484;28;20040;-39
2023/07/11 00:15:41;;;;;;;5.95;2.30;;;17.80;99.90;;;;;;5048490;28;20040;-40
2023/07/11 00:18:07;;;;;;;8.35;2.97;;;17.70;99.90;;;;;;5048408;28;20623;-39
2023/07/11 00:20:32;;;;;;;3.90;2.13;;;17.80;99.90;;;;;;5044081;28;20059;-42
2023/07/11 00:22:58;;;;;;;5.75;2.30;;;17.80;99.90;;;;;;5052814;28;20493;-39
2023/07/11 00:25:24;;;;;;;4.90;2.75;;;17.70;99.90;;;;;;5051906;28;20518;-39
2023/07/11 00:27:49;;;;;;;5.93;2.67;;;17.70;99.90;;;;;;5046387;28;20067;-39
2023/07/11 00:30:15;;;;;;;6.68;2.95;;;17.80;99.90;;;;;;5061923;28;20076;-39
2023/07/11 00:32:40;;;;;;;4.55;2.38;;;17.70;99.90;;;;;;5042194;28;20546;-40
2023/07/11 00:35:07;;;;;;;5.55;2.30;;;17.70;99.90;;;;;;5051308;28;20040;-40
2023/07/11 00:37:34;;;;;;;4.53;2.33;;;17.70;99.90;;;;;;5045258;28;20055;-41
2023/07/11 00:39:59;;;;;;;8.27;2.40;;;17.70;99.90;;;;;;5054864;28;20140;-42
2023/07/11 00:42:25;;;;;;;9.25;2.85;;;17.60;99.90;;;;;;5044816;28;20470;-40
2023/07/11 00:45:03;;;;;;;6.82;2.63;;;17.70;99.90;;;;;;5047741;28;20047;-40
2023/07/11 00:47:30;;;;;;;5.05;2.55;;;17.60;99.90;;;;;;5053116;28;20402;-40
2023/07/11 00:50:04;;;;;;;4.28;2.55;;;17.60;99.90;;;;;;5055455;28;20047;-40
2023/07/11 00:52:31;;;;;;;6.88;2.60;;;17.70;99.90;;;;;;5050006;28;20045;-40
2023/07/11 00:55:00;;;;;;;5.50;2.85;;;17.60;99.90;;;;;;5053702;28;20399;-42
2023/07/11 00:57:32;;;;;;;6.15;3.10;;;17.60;99.90;;;;;;5049606;28;20072;-39
2023/07/11 00:59:58;;;;;;;5.63;2.72;;;17.60;99.90;;;;;;5049611;28;20040;-39
2023/07/11 01:02:27;;;;;;;5.72;2.50;;;17.60;99.90;;;;;;5053267;28;20037;-41
2023/07/11 01:04:52;;;;;;;8.05;3.08;;;17.60;99.90;;;;;;5052399;28;20043;-39
2023/07/11 01:07:25;;;;;;;7.03;3.08;;;17.50;99.90;;;;;;5047283;28;20049;-39
2023/07/11 01:09:51;;;;;;;6.53;2.67;;;17.50;99.90;;;;;;5045413;28;20083;-42
2023/07/11 01:12:17;;;;;;;7.45;2.88;;;17.50;99.90;;;;;;5051587;28;20499;-40
2023/07/11 01:14:46;;;;;;;6.07;2.58;;;17.50;99.90;;;;;;5047421;28;20044;-41
2023/07/11 01:17:22;;;;;;;8.10;3.00;;;17.50;99.90;;;;;;5047463;28;20510;-40
2023/07/11 01:19:48;;;;;;;6.97;3.13;;;17.50;99.90;;;;;;5053764;28;20124;-40
2023/07/11 01:22:13;;;;;;;9.52;3.17;;;17.50;99.90;;;;;;5046762;28;20571;-40
2023/07/11 01:24:39;;;;;;;5.05;3.05;;;17.60;99.90;;;;;;5047728;28;20047;-40
2023/07/11 01:27:04;;;;;;;6.65;3.45;;;17.60;99.90;;;;;;5052636;28;20037;-43
2023/07/11 01:29:30;;;;;;;5.95;3.22;;;17.60;99.90;;;;;;5045471;28;20123;-39
2023/07/11 01:31:56;;;;;;;6.60;2.78;;;17.60;99.90;;;;;;5042320;28;20087;-39
2023/07/11 01:34:21;;;;;;;5.20;3.30;;;17.60;99.90;;;;;;5046953;28;20090;-39
2023/07/11 01:36:47;;;;;;;7.53;3.17;;;17.60;99.90;;;;;;5043140;28;20399;-40
2023/07/11 01:39:12;;;;;;;7.28;3.47;;;17.60;99.90;;;;;;5055457;28;20090;-39
2023/07/11 01:41:38;;;;;;;6.82;3.08;;;17.60;99.90;;;;;;5048945;28;20049;-40
2023/07/11 01:44:04;;;;;;;7.20;3.10;;;17.70;99.90;;;;;;5059032;28;20049;-39
2023/07/11 01:46:29;;;;;;;6.60;3.53;;;17.70;99.90;;;;;;5044177;28;20068;-41
2023/07/11 01:48:55;;;;;;;6.70;2.90;;;17.70;99.90;;;;;;5046827;28;20037;-42
2023/07/11 01:51:20;;;;;;;6.68;3.35;;;17.70;99.90;;;;;;5046489;28;20090;-41
2023/07/11 01:53:46;;;;;;;6.95;3.30;;;17.70;99.90;;;;;;5044742;28;20037;-40
2023/07/11 01:56:12;;;;;;;9.75;3.28;;;17.80;99.90;;;;;;5043699;28;20045;-40
2023/07/11 01:58:38;;;;;;;6.07;3.05;;;17.90;99.90;;;;;;5045060;28;20041;-41
2023/07/11 02:01:04;;;;;;;7.93;3.70;;;17.90;99.90;;;;;;5047457;28;20048;-41
2023/07/11 02:03:29;;;;;;;6.38;3.25;;;17.90;99.90;;;;;;5042828;28;20090;-45
2023/07/11 02:05:55;;;;;;;6.47;3.60;;;17.90;99.90;;;;;;5044251;28;20511;-39
2023/07/11 02:08:21;;;;;;;7.18;3.58;;;18.00;99.90;;;;;;5041564;28;20045;-41
2023/07/11 02:10:46;;;;;;;6.35;3.65;;;17.90;99.90;;;;;;5043403;28;20040;-41
2023/07/11 02:13:12;;;;;;;6.85;3.80;;;17.90;99.90;;;;;;5043449;28;20041;-41
2023/07/11 02:15:38;;;;;;;7.97;3.50;;;18.00;99.90;;;;;;5043603;28;20072;-39
2023/07/11 02:18:03;;;;;;;6.03;3.28;;;17.90;99.90;;;;;;5044299;28;20060;-39
2023/07/11 02:20:29;;;;;;;8.40;3.47;;;17.90;99.90;;;;;;5043962;28;20041;-39
2023/07/11 02:22:55;;;;;;;7.15;3.38;;;17.90;99.90;;;;;;5045744;28;20120;-41
2023/07/11 02:25:20;;;;;;;6.68;3.17;;;18.00;99.90;;;;;;5050186;28;20041;-42
2023/07/11 02:27:46;;;;;;;7.53;3.17;;;18.00;99.90;;;;;;5058915;28;20041;-40
2023/07/11 02:30:12;;;;;;;5.80;3.13;;;18.00;99.90;;;;;;5039791;28;20037;-39
2023/07/11 02:32:39;;;;;;;6.93;3.13;;;18.00;99.90;;;;;;5042881;28;20038;-42
2023/07/11 02:35:05;;;;;;;4.38;2.78;;;18.00;99.90;;;;;;5048650;28;20449;-43
2023/07/11 02:37:31;;;;;;;6.28;3.10;;;18.00;99.90;;;;;;5045318;28;20083;-40
2023/07/11 02:39:57;;;;;;;5.85;3.40;;;18.00;99.90;;;;;;5045473;28;20117;-42
2023/07/11 02:42:22;;;;;;;5.72;3.08;;;18.00;99.90;;;;;;5045941;28;20222;-40
2023/07/11 02:44:48;;;;;;;8.15;3.30;;;17.90;99.90;;;;;;5046980;28;20045;-40
2023/07/11 02:47:14;;;;;;;6.50;3.10;;;17.90;99.90;;;;;;5053997;28;20044;-39
2023/07/11 02:49:41;;;;;;;6.70;3.30;;;17.90;99.90;;;;;;5040500;28;20044;-40
2023/07/11 02:52:07;;;;;;;5.23;3.30;;;17.80;99.90;;;;;;5057118;28;20119;-40
2023/07/11 02:54:36;;;;;;;6.90;3.23;;;17.80;99.90;;;;;;5046410;28;20319;-40
2023/07/11 02:57:03;;;;;;;6.32;3.13;;;17.80;99.90;;;;;;5042293;28;21195;-40
2023/07/11 02:59:29;;;;;;;5.45;3.00;;;17.70;99.90;;;;;;5044361;28;20537;-42
2023/07/11 03:01:56;;;;;;;6.50;3.13;;;17.70;99.90;;;;;;5043028;28;20040;-40
2023/07/11 03:04:22;;;;;;;6.93;4.45;;;17.70;99.90;;;;;;5059497;28;20551;-41
2023/07/11 03:06:48;;;;;;;5.50;3.20;;;17.70;99.90;;;;;;5046298;28;20171;-41
2023/07/11 03:09:13;;;;;;;6.78;3.90;;;17.60;99.90;;;;;;5046613;28;20041;-42
2023/07/11 03:11:39;;;;;;;4.10;2.72;;;17.60;99.90;;;;;;5043871;28;20048;-39
2023/07/11 03:14:05;;;;;;;8.30;3.63;;;17.60;99.90;;;;;;5046437;28;20045;-40
2023/07/11 03:16:30;;;;;;;7.45;3.38;;;17.60;99.90;;;;;;5046892;28;20045;-42
2023/07/11 03:18:56;;;;;;;5.82;3.40;;;17.60;99.90;;;;;;5043818;28;20503;-45
2023/07/11 03:21:21;;;;;;;10.40;3.30;;;17.60;99.90;;;;;;5045525;28;20502;-43
2023/07/11 03:23:47;;;;;;;6.95;3.50;;;17.50;99.90;;;;;;5046311;28;20048;-39
2023/07/11 03:26:13;;;;;;;7.38;3.22;;;17.60;99.90;;;;;;5043736;28;20036;-43
2023/07/11 03:28:38;;;;;;;8.20;3.60;;;17.60;99.90;;;;;;5043993;28;20669;-40
2023/07/11 03:31:04;;;;;;;10.07;3.85;;;17.50;99.90;;;;;;5041296;28;20036;-39
2023/07/11 03:33:30;;;;;;;5.25;3.40;;;17.50;99.90;;;;;;5039434;28;20049;-40
2023/07/11 03:35:56;;;;;;;5.82;3.42;;;17.50;99.90;;;;;;5043100;28;20048;-40
2023/07/11 03:38:21;;;;;;;6.10;3.20;;;17.50;99.90;;;;;;5046863;28;20029;-40
2023/07/11 03:40:47;;;;;;;6.97;3.75;;;17.50;99.90;;;;;;5045071;28;20037;-43
2023/07/11 03:43:13;;;;;;;6.38;3.33;;;17.50;99.90;;;;;;5043877;28;20037;-40
2023/07/11 03:45:45;;;;;;;10.02;4.00;;;17.50;99.90;;;;;;5045180;28;20036;-41
2023/07/11 03:48:12;;;;;;;6.30;3.60;;;17.50;99.90;;;;;;5044742;28;20093;-39
2023/07/11 03:50:38;;;;;;;7.63;4.03;;;17.50;99.90;;;;;;5044824;28;20052;-41
2023/07/11 03:53:03;;;;;;;8.45;3.92;;;17.50;99.90;;;;;;5042664;28;20065;-39
2023/07/11 03:55:29;;;;;;;5.75;3.53;;;17.60;99.90;;;;;;5044484;28;20041;-39
2023/07/11 03:57:54;;;;;;;8.77;3.55;;;17.50;99.90;;;;;;5044579;28;20122;-40
2023/07/11 04:00:20;;;;;;;6.20;3.60;;;17.60;99.90;;;;;;5043661;28;20041;-39
2023/07/11 04:02:46;;;;;;;6.35;4.03;;;17.60;99.90;;;;;;5046638;28;20087;-39
2023/07/11 04:05:11;;;;;;;6.18;3.55;;;17.70;99.90;;;;;;5045593;28;20095;-39
2023/07/11 04:07:37;;;;;;;9.18;3.97;;;17.70;99.90;;;;;;5046667;28;20118;-42
2023/07/11 04:10:05;;;;;;;6.30;3.45;;;17.80;99.90;;;;;;5048377;28;20033;-39
2023/07/11 04:12:30;;;;;;;7.45;3.60;;;17.90;99.90;;;;;;5044751;28;20513;-42
2023/07/11 04:14:56;;;;;;;5.47;3.17;;;17.90;99.90;;;;;;5045607;28;20078;-40
2023/07/11 04:17:22;;;;;;;5.50;3.22;;;18.00;99.90;;;;;;5044231;28;20041;-41
2023/07/11 04:19:48;;;;;;;6.38;3.13;;;18.10;99.90;;;;;;5042148;28;20060;-39
2023/07/11 04:22:13;;;;;;;11.68;4.75;;;18.20;99.90;;;;;;5046698;28;20445;-40
2023/07/11 04:24:39;;;;;;;7.75;3.88;;;18.10;99.90;;;;;;5047519;28;20037;-41
2023/07/11 04:27:04;;;;;;;6.15;3.45;;;18.30;99.90;;;;;;5044982;28;20045;-41
2023/07/11 04:29:30;;;;;;;7.15;3.20;;;;;;;;;;5048944;28;20627;-40
2023/07/11 04:31:56;;;;;;;6.22;3.80;;;18.50;99.90;;;;;;5046954;28;20095;-43
2023/07/11 04:34:25;;;;;;;5.10;3.58;;;;;;;;;;5044540;28;20430;-39
2023/07/11 04:36:50;;;;;;;10.95;4.10;;;18.50;99.90;;;;;;5041453;28;20037;-43
2023/07/11 04:39:16;;;;;;;9.35;3.88;;;;;;;;;;5045540;28;20056;-40
2023/07/11 04:41:42;;;;;;;7.47;4.10;;;;;;;;;;5042144;28;20548;-41
2023/07/11 04:44:08;;;;;;;9.32;3.90;;;18.90;99.90;;;;;;5046933;28;20080;-41
2023/07/11 04:46:34;;;;;;;8.20;4.15;;;19.20;99.90;;;;;;5045282;28;20065;-42
2023/07/11 04:48:59;;;;;;;7.70;3.47;;;19.20;99.90;;;;;;5043137;28;20045;-41
2023/07/11 04:51:25;;;;;;;5.63;3.65;;;;;;;;;;5043494;28;20511;-39
2023/07/11 04:53:51;;;;;;;7.18;3.80;;;;;;;;;;5040996;28;20772;-42
2023/07/11 04:56:17;;;;;;;6.38;4.00;;;20.00;99.90;;;;;;5042058;28;20037;-40
2023/07/11 04:58:43;;;;;;;8.50;3.85;;;20.00;99.90;;;;;;5042103;28;20083;-40
2023/07/11 05:01:12;;;;;;;6.07;3.58;;;20.10;99.90;;;;;;5046593;28;20044;-40
2023/07/11 05:03:39;;;;;;;7.20;3.53;;;20.10;99.90;;;;;;5051987;28;20055;-39
2023/07/11 05:06:06;;;;;;;4.88;3.25;;;20.40;99.90;;;;;;5050222;28;20037;-40
2023/07/11 05:08:32;;;;;;;6.97;3.47;;;20.50;99.90;;;;;;5043760;28;20123;-41
2023/07/11 05:11:14;;;;;;;7.53;3.80;;;21.40;99.90;;;;;;5045238;28;20164;-42
2023/07/11 05:13:41;;;;;;;7.38;3.50;;;22.40;99.90;;;;;;5039919;28;20096;-41
2023/07/11 05:16:11;;;;;;;5.82;3.60;;;22.30;99.90;;;;;;5040611;28;20041;-41
2023/07/11 05:18:40;;;;;;;8.50;3.40;;;22.90;99.90;;;;;;5041149;28;20074;-44
2023/07/11 05:21:11;;;;;;;3.35;2.58;;;23.00;99.90;;;;;;5041500;28;20395;-42
2023/07/11 05:23:37;;;;;;;5.18;3.20;;;24.20;99.90;;;;;;5045202;28;20052;-42
2023/07/11 05:26:04;;;;;;;8.45;3.20;;;24.00;99.90;;;;;;5041442;28;22323;-44
2023/07/11 05:28:32;;;;;;;4.22;2.72;;;23.60;99.90;;;;;;5043000;28;20174;-40
2023/07/11 05:31:01;;;;;;;7.32;2.90;;;23.40;99.90;;;;;;5042090;28;20456;-43
2023/07/11 05:33:27;;;;;;;6.63;3.00;;;22.90;99.90;;;;;;5043260;28;20037;-45
2023/07/11 05:36:13;;;;;;;5.88;2.92;;;23.00;99.90;;;;;;5046828;28;20487;-41
2023/07/11 05:38:39;;;;;;;5.95;3.03;;;22.60;99.90;;;;;;5042848;28;20041;-43
2023/07/11 05:41:05;;;;;;;5.82;2.65;;;22.40;99.90;;;;;;5041142;28;20518;-42
2023/07/11 05:43:30;;;;;;;7.53;2.80;;;22.50;99.90;;;;;;5040459;28;20041;-40
2023/07/11 05:45:56;;;;;;;3.28;2.65;;;22.50;99.90;;;;;;5041742;28;20128;-40
2023/07/11 05:48:22;;;;;;;10.65;2.97;;;23.50;99.90;;;;;;5040627;28;20394;-41
2023/07/11 05:51:08;;;;;;;5.10;2.63;;;24.60;99.90;;;;;;5040986;28;20073;-40
2023/07/11 05:53:34;;;;;;;6.23;2.77;;;26.00;99.90;;;;;;5043012;28;20352;-41
2023/07/11 05:56:00;;;;;;;5.60;2.67;;;27.30;99.90;;;;;;5040656;28;20044;-43
2023/07/11 05:58:30;;;;;;;4.47;2.50;;;27.50;99.90;;;;;;5041907;28;20037;-40
2023/07/11 06:00:57;;;;;;;4.85;2.42;;;28.40;99.90;;;;;;5043900;28;20120;-43
2023/07/11 06:03:24;;;;;;;7.60;2.85;;;28.70;99.90;;;;;;5043878;28;20402;-42
2023/07/11 06:05:50;;;;;;;7.45;2.83;;;29.00;99.90;;;;;;5045255;28;20041;-40
2023/07/11 06:08:17;;;;;;;4.40;2.65;;;28.70;99.20;;;;;;5044028;28;20062;-41
2023/07/11 06:10:43;;;;;;;4.63;2.47;;;28.80;99.00;;;;;;5040654;28;20045;-41
2023/07/11 06:13:13;;;;;;;3.67;2.85;;;28.70;98.90;;;;;;5039451;28;20065;-41
2023/07/11 06:15:39;;;;;;;5.43;2.88;;;28.60;99.30;;;;;;5039803;28;20507;-40
2023/07/11 06:18:05;;;;;;;12.25;2.80;;;28.50;99.00;;;;;;5040307;28;20040;-40
2023/07/11 06:20:31;;;;;;;5.05;2.53;;;28.10;98.60;;;;;;5044450;28;20040;-41
2023/07/11 06:22:57;;;;;;;6.53;2.92;;;28.20;98.50;;;;;;5056773;28;20037;-40
2023/07/11 06:25:22;;;;;;;4.20;2.33;;;28.50;98.30;;;;;;5043570;28;20048;-42
2023/07/11 06:27:48;;;;;;;5.03;2.60;;;28.90;98.60;;;;;;5050544;28;20073;-40
2023/07/11 06:30:14;;;;;;;6.47;2.60;;;28.60;98.50;;;;;;5041842;28;20041;-42
2023/07/11 06:32:40;;;;;;;4.68;2.55;;;28.40;98.50;;;;;;5062918;28;20411;-41
2023/07/11 06:35:06;;;;;;;5.68;2.90;;;28.40;98.70;;;;;;5052055;28;20080;-41
2023/07/11 06:37:31;;;;;;;6.30;2.78;;;29.00;98.30;;;;;;5051770;28;20044;-41
2023/07/11 06:39:57;;;;;;;3.85;2.50;;;29.20;97.70;;;;;;5043355;28;20394;-42
2023/07/11 06:42:23;;;;;;;7.05;3.05;;;28.70;97.80;;;;;;5049398;28;20037;-41
2023/07/11 06:44:48;;;;;;;4.40;2.80;;;29.00;97.70;;;;;;5050357;28;20103;-43
2023/07/11 06:47:14;;;;;;;3.53;2.45;;;29.20;98.00;;;;;;5052078;28;20056;-45
2023/07/11 06:49:40;;;;;;;6.38;2.60;;;29.10;97.50;;;;;;5043447;28;20037;-45
2023/07/11 06:52:06;;;;;;;8.35;3.15;;;;;;;;;;5043324;28;20045;-40
2023/07/11 06:54:31;;;;;;;7.65;2.78;;;29.80;97.50;;;;;;5048342;28;20057;-43
2023/07/11 06:57:00;;;;;;;7.82;2.75;;;29.40;96.60;;;;;;5045571;28;20399;-41
2023/07/11 06:59:26;;;;;;;8.77;3.78;;;29.10;97.00;;;;;;5043476;28;20037;-40
2023/07/11 07:01:52;;;;;;;8.23;3.22;;;28.60;96.90;;;;;;5046257;28;20049;-42
2023/07/11 07:04:18;;;;;;;6.60;2.80;;;28.90;97.70;;;;;;5044918;28;20071;-41
2023/07/11 07:06:44;;;;;;;5.68;2.58;;;29.30;97.40;;;;;;5045652;28;20065;-40
2023/07/11 07:09:10;;;;;;;4.65;2.70;;;29.40;97.00;;;;;;5043968;28;20047;-41
2023/07/11 07:11:37;;;;;;;5.70;2.95;;;30.10;96.60;;;;;;5046473;28;20040;-41
2023/07/11 07:14:05;;;;;;;6.95;2.65;;;30.50;96.90;;;;;;5046495;28;20045;-40
2023/07/11 07:16:32;;;;;;;6.82;2.60;;;30.60;96.40;;;;;;5046940;28;20491;-42
2023/07/11 07:18:58;;;;;;;5.28;2.65;;;31.30;95.90;;;;;;5044852;28;20052;-40
2023/07/11 07:21:23;;;;;;;4.57;2.70;;;31.60;95.70;;;;;;5046007;28;20037;-39
2023/07/11 07:23:49;;;;;;;6.43;2.72;;;31.50;94.50;;;;;;5056561;28;20037;-39
2023/07/11 07:26:15;;;;;;;6.13;2.55;;;31.30;94.00;;;;;;5054879;28;20439;-42
2023/07/11 07:28:41;;;;;;;5.47;2.90;;;31.60;94.20;;;;;;5055869;28;20506;-41
2023/07/11 07:31:07;;;;;;;3.97;2.42;;;31.70;94.30;;;;;;5045801;28;20033;-40
2023/07/11 07:33:33;;;;;;;6.25;2.60;;;31.70;94.00;;;;;;5052025;28;20068;-40
2023/07/11 07:36:06;;;;;;;7.13;3.27;;;32.10;94.70;;;;;;5042549;28;20141;-40
2023/07/11 07:38:32;;;;;;;7.32;2.78;;;31.80;93.70;;;;;;5043841;28;20291;-41
2023/07/11 07:41:01;;;;;;;5.97;2.58;;;31.90;93.70;;;;;;5046383;28;20064;-40
2023/07/11 07:43:27;;;;;;;7.05;2.42;;;31.90;93.70;;;;;;5048324;28;20103;-41
2023/07/11 07:45:54;;;;;;;;;;;31.80;93.30;;;;;;5050550;28;20091;-41
2023/07/11 07:48:20;;;;;;;7.15;2.65;;;31.60;93.90;;;;;;5051901;28;19967;-43
2023/07/11 07:50:46;;;;;;;5.03;2.67;;;31.10;93.90;;;;;;5048543;28;20049;-40
2023/07/11 07:53:13;;;;;;;5.68;2.60;;;30.70;94.00;;;;;;5048029;28;20055;-41
2023/07/11 07:55:39;;;;;;;5.75;2.47;;;30.40;93.70;;;;;;5046523;28;20090;-42
2023/07/11 07:58:05;;;;;;;6.85;2.55;;;29.60;93.90;;;;;;5052274;28;20047;-41
2023/07/11 08:00:32;;;;;;;7.30;2.37;;;29.30;94.40;;;;;;5059621;28;20056;-40
2023/07/11 08:02:58;;;;;;;5.00;2.53;;;29.30;95.10;;;;;;5052593;28;20418;-40
2023/07/11 08:05:23;;;;;;;5.60;2.67;;;29.20;95.10;;;;;;5047409;28;20299;-42
2023/07/11 08:07:49;;;;;;;4.90;2.20;;;29.10;94.90;;;;;;5047565;28;20443;-40
2023/07/11 08:10:15;;;;;;;6.45;2.35;;;29.00;95.20;;;;;;5048476;28;20454;-41
2023/07/11 08:12:42;;;;;;;6.37;2.30;;;29.10;95.70;;;;;;5044976;28;20041;-41
2023/07/11 08:15:09;;;;;;;4.30;2.10;;;29.10;95.60;;;;;;5042493;28;20302;-41
2023/07/11 08:17:34;;;;;;;6.90;2.60;;;29.00;95.00;;;;;;5042017;28;20041;-41
2023/07/11 08:20:00;;;;;;;4.85;2.17;;;28.80;95.00;;;;;;5046704;28;20186;-41
2023/07/11 08:22:26;;;;;;;5.15;2.10;;;28.80;94.70;;;;;;4853311;22;20056;-42
2023/07/11 08:24:52;;;;;;;4.78;2.10;;;28.60;95.10;;;;;;5090514;28;20127;-42
2023/07/11 08:27:18;;;;;;;6.05;2.13;;;28.70;95.40;;;;;;5084665;28;20044;-39
2023/07/11 08:29:45;;;;;;;6.03;2.50;;;28.70;95.20;;;;;;5094018;28;20035;-39
2023/07/11 08:32:12;;;;;;;7.70;2.63;;;28.80;95.50;;;;;;5082260;28;20047;-40
2023/07/11 08:34:38;;;;;;;6.35;2.42;;;28.90;95.20;;;;;;5084803;28;20414;-40
2023/07/11 08:37:04;;;;;;;4.70;2.20;;;29.00;95.10;;;;;;5091438;28;20028;-40
2023/07/11 08:39:30;;;;;;;5.82;2.25;;;29.00;95.30;;;;;;5085747;28;20036;-42
2023/07/11 08:41:59;;;;;;;5.90;2.40;;;29.20;96.00;;;;;;5087844;28;20040;-40
2023/07/11 08:44:33;;;;;;;5.53;2.30;;;29.20;95.70;;;;;;5086574;28;20088;-42
2023/07/11 08:47:03;;;;;;;4.88;2.15;;;29.30;95.20;;;;;;5087600;28;20165;-41
2023/07/11 08:49:35;;;;;;;4.97;2.25;;;29.40;95.60;;;;;;5089925;28;20036;-40
2023/07/11 08:52:02;;;;;;;7.78;2.63;;;29.40;95.00;;;;;;5085925;28;20458;-41
2023/07/11 08:54:33;;;;;;;5.85;2.45;;;29.50;95.80;;;;;;5085514;28;20123;-42
2023/07/11 08:56:59;;;;;;;7.97;2.78;;;29.40;95.40;;;;;;5090269;28;20044;-40
2023/07/11 08:59:42;;;;;;;5.47;2.50;;;29.60;96.00;;;;;;5090986;28;20515;-41
2023/07/11 09:02:24;;;;;;;5.82;2.50;;;29.60;95.80;;;;;;5089820;28;20975;-40
2023/07/11 09:04:52;;;;;;;3.75;2.20;;;29.80;95.20;;;;;;5085041;28;20051;-41
2023/07/11 09:07:31;;;;;;;7.00;2.63;;;29.80;95.10;;;;;;5083352;28;20115;-39
2023/07/11 09:09:57;;;;;;;6.22;2.85;;;29.90;95.30;;;;;;5084405;28;20394;-40
2023/07/11 09:12:28;;;;;;;5.80;2.40;;;29.50;94.70;;;;;;5087135;28;20067;-40
2023/07/11 09:15:19;;;;;;;5.20;2.10;;;29.80;95.90;;;;;;5082717;28;20044;-41
2023/07/11 09:17:48;;;;;;;6.07;2.50;;;29.90;95.30;;;;;;5086875;28;20036;-43
2023/07/11 09:20:32;;;;;;;6.03;2.50;;;29.90;95.40;;;;;;5086737;28;20081;-41
2023/07/11 09:23:15;;;;;;;3.55;2.47;;;29.70;95.50;;;;;;5087229;28;20532;-42
2023/07/11 09:25:43;;;;;;;5.28;2.63;;;30.00;95.60;;;;;;5067314;22;20061;-40
2023/07/11 09:28:22;;;;;;;4.65;2.30;;;30.10;95.70;;;;;;5039799;28;20407;-40
2023/07/11 09:31:00;;;;;;;3.65;2.15;;;30.10;95.60;;;;;;5043262;28;20550;-40
2023/07/11 09:33:28;;;;;;;6.25;2.50;;;30.20;93.90;;;;;;5041035;28;20570;-40
2023/07/11 09:35:55;;;;;;;6.03;2.22;;;30.10;95.00;;;;;;5051454;28;20399;-40
2023/07/11 09:38:37;;;;;;;6.03;2.30;;;30.20;94.90;;;;;;5051316;28;20053;-41
2023/07/11 09:41:19;;;;;;;6.68;2.30;;;30.10;93.80;;;;;;5051816;28;20041;-40
2023/07/11 09:43:45;;;;;;;3.63;2.10;;;30.10;94.00;;;;;;5052801;28;20049;-42
2023/07/11 09:46:16;;;;;;;6.97;2.58;;;30.30;93.40;;;;;;5048787;28;21504;-40
2023/07/11 09:48:44;;;;;;;7.13;1.95;;;30.30;93.60;;;;;;5052305;28;20045;-40
2023/07/11 09:51:10;;;;;;;3.05;1.88;;;30.20;93.30;;;;;;5049200;28;20040;-41
2023/07/11 09:53:35;;;;;;;4.20;2.08;;;30.30;93.60;;;;;;5040169;28;20048;-41
2023/07/11 09:56:04;;;;;;;8.80;2.47;;;30.40;94.10;;;;;;5040601;28;20048;-40
2023/07/11 09:58:33;;;;;;;4.20;2.00;;;30.40;94.00;;;;;;5040260;28;20041;-40
2023/07/11 10:01:05;;;;;;;3.95;2.00;;;30.50;94.50;;;;;;5041311;28;20037;-40
2023/07/11 10:03:36;;;;;;;7.00;2.30;;;30.40;93.60;;;;;;5043513;28;20127;-41
2023/07/11 10:06:04;;;;;;;8.93;2.22;;;30.40;93.40;;;;;;5047652;28;20053;-41
2023/07/11 10:08:35;;;;;;;6.22;2.13;;;30.30;93.70;;;;;;5051835;28;20045;-40
2023/07/11 10:11:13;;;;;;;9.77;2.50;;;30.50;93.80;;;;;;5089539;22;20118;-41
2023/07/11 10:13:41;;;;;;;4.35;2.00;;;30.30;93.10;;;;;;5065583;28;20436;-40
2023/07/11 10:16:14;;;;;;;6.15;2.25;;;30.40;93.20;;;;;;5069925;28;20175;-42
2023/07/11 10:18:43;;;;;;;5.80;1.92;;;30.60;93.10;;;;;;5070561;28;20033;-41
2023/07/11 10:21:16;;;;;;;5.93;2.05;;;30.50;92.70;;;;;;5071359;28;20137;-40
2023/07/11 10:23:44;;;;;;;8.45;2.00;;;30.80;94.00;;;;;;5066250;28;20409;-43
2023/07/11 10:26:09;;;;;;;6.13;2.00;;;30.70;92.90;;;;;;5069340;28;20120;-41
2023/07/11 10:28:43;;;;;;;6.07;1.95;;;30.60;92.30;;;;;;5065281;28;20171;-42
2023/07/11 10:31:31;;;;;;;6.43;2.40;;;30.80;92.60;;;;;;5065094;28;20089;-41
2023/07/11 10:34:07;;;;;;;4.68;1.85;;;30.90;92.40;;;;;;5069210;28;20105;-41
2023/07/11 10:36:54;;;;;;;5.85;2.17;;;30.70;92.30;;;;;;5068608;28;20394;-41
2023/07/11 10:39:27;;;;;;;;;;;30.80;92.80;;;;;;5068834;28;20558;-42
2023/07/11 10:42:28;;;;;;;2.65;1.83;;;30.80;92.00;;;;;;5069785;28;19920;-41
2023/07/11 10:45:06;;;;;;;2.53;1.40;;;30.90;92.20;;;;;;5066384;28;20106;-40
2023/07/11 10:47:36;;;;;;;4.88;1.50;;;31.00;92.50;;;;;;5068928;28;20123;-41
2023/07/11 10:50:11;;;;;;;3.17;1.67;;;31.00;92.00;;;;;;5064920;28;20123;-41
2023/07/11 10:52:39;;;;;;;3.53;1.80;;;31.10;92.50;;;;;;5063353;28;20128;-41
2023/07/11 10:55:19;;;;;;;4.18;1.58;;;31.10;92.30;;;;;;5067678;28;20127;-41
2023/07/11 10:57:52;;;;;;;2.17;1.60;;;31.10;92.40;;;;;;5067382;28;20041;-41
2023/07/11 11:00:36;;;;;;;3.42;1.67;;;30.90;92.70;;;;;;5066555;28;20080;-41
2023/07/11 11:03:30;;;;;;;4.45;1.73;;;31.00;93.10;;;;;;5073028;28;20044;-40
2023/07/11 11:05:56;;;;;;;6.80;1.92;;;30.80;92.70;;;;;;5069563;28;20056;-41
2023/07/11 11:08:29;;;;;;;4.70;1.90;;;30.70;92.10;;;;;;5063441;28;20040;-40
2023/07/11 11:11:13;;;;;;;4.00;2.00;;;30.70;92.90;;;;;;5069375;28;20061;-43
2023/07/11 11:14:13;;;;;;;3.60;1.77;;;30.80;93.40;;;;;;5060505;28;20060;-41
2023/07/11 11:16:57;;;;;;;6.13;2.22;;;31.10;93.10;;;;;;5045110;28;20198;-42
2023/07/11 11:20:01;;;;;;;4.82;1.83;;;31.20;93.00;;;;;;5046384;28;20144;-41
2023/07/11 11:22:56;;;;;;;4.88;1.98;;;31.20;93.30;;;;;;5033460;28;20080;-41
2023/07/11 11:25:47;;;;;;;4.97;2.25;;;31.40;93.20;;;;;;5034960;28;20112;-43
2023/07/11 11:28:42;;;;;;;4.40;1.80;;;31.50;92.10;;;;;;5044912;28;20710;-41
2023/07/11 11:31:16;;;;;;;5.18;2.05;;;31.60;93.30;;;;;;5042921;28;20457;-40
2023/07/11 11:34:03;;;;;;;5.35;2.28;;;31.90;92.30;;;;;;5049822;28;20076;-41
2023/07/11 11:36:47;;;;;;;4.45;2.03;;;31.90;92.70;;;;;;5049973;28;20041;-42
2023/07/11 11:39:38;;;;;;;4.40;1.83;;;32.10;92.50;;;;;;5043991;28;20072;-41
2023/07/11 11:42:12;;;;;;;3.67;1.98;;;31.90;91.80;;;;;;5041613;28;20076;-41
2023/07/11 11:44:45;;;;;;;4.03;1.77;;;31.70;92.40;;;;;;5042693;28;20107;-40
2023/07/11 11:47:12;;;;;;;3.65;1.80;;;31.50;92.20;;;;;;5040541;28;20083;-40
2023/07/11 11:49:39;;;;;;;5.28;1.90;;;31.20;92.60;;;;;;5029304;28;20052;-42
2023/07/11 11:52:06;;;;;;;3.70;1.70;;;31.40;92.60;;;;;;5044251;28;20037;-41
2023/07/11 11:54:42;;;;;;;;;;;31.50;92.30;;;;;;5065513;28;20107;-42
2023/07/11 11:57:18;;;;;;;5.72;1.90;;;31.30;92.00;;;;;;5064350;28;20247;-41
2023/07/11 11:59:45;;;;;;;6.63;2.05;;;31.40;92.10;;;;;;5063146;28;20044;-41
2023/07/11 12:02:15;;;;;;;4.07;1.70;;;31.40;92.50;;;;;;5060319;28;20037;-42
2023/07/11 12:05:00;;;;;;;5.07;2.17;;;31.20;92.10;;;;;;5067757;28;20559;-41
2023/07/11 12:07:33;;;;;;;10.63;2.20;;;31.20;92.50;;;;;;5066195;28;20049;-42
2023/07/11 12:10:00;;;;;;;9.65;2.20;;;31.30;92.20;;;;;;5064944;28;20123;-40
2023/07/11 12:12:45;;;;;;;;;;;31.50;92.60;;;;;;5066918;28;20052;-40
2023/07/11 12:15:11;;;;;;;7.35;1.95;;;31.60;92.20;;;;;;5068381;28;19924;-40
2023/07/11 12:17:38;;;;;;;11.70;2.40;;;31.40;91.90;;;;;;5064977;28;20048;-40
2023/07/11 12:20:10;;;;;;;5.28;2.00;;;31.40;91.20;;;;;;5065347;28;20074;-41
2023/07/11 12:22:39;;;;;;;7.35;1.67;;;31.60;91.50;;;;;;5066825;28;20491;-40
2023/07/11 12:25:10;;;;;;;4.15;1.92;;;31.40;90.50;;;;;;5065914;28;20043;-40
2023/07/11 12:27:36;;;;;;;9.82;2.30;;;31.30;90.40;;;;;;5067329;28;20047;-41
2023/07/11 12:30:13;;;;;;;5.83;1.87;;;31.10;89.90;;;;;;5064145;28;20386;-41
2023/07/11 12:32:50;;;;;;;4.38;2.00;;;31.20;91.20;;;;;;5066688;28;20045;-41
2023/07/11 12:35:16;;;;;;;;;;;31.10;89.70;;;;;;5067597;28;20871;-42
2023/07/11 12:38:00;;;;;;;3.60;1.77;;;30.90;90.10;;;;;;5067559;28;20018;-41
2023/07/11 12:40:53;;;;;;;4.40;1.55;;;30.90;90.00;;;;;;5063080;28;20045;-40
2023/07/11 12:43:32;;;;;;;2.78;1.70;;;31.10;89.60;;;;;;5066513;28;20040;-40
2023/07/11 12:46:01;;;;;;;2.53;1.50;;;31.20;89.20;;;;;;5065960;28;20044;-40
2023/07/11 12:48:38;;;;;;;2.58;1.83;;;31.20;90.00;;;;;;5063978;28;20040;-41
2023/07/11 12:51:28;;;;;;;2.78;1.80;;;31.00;90.00;;;;;;5063864;28;20048;-41
2023/07/11 12:54:01;;;;;;;4.72;1.73;;;30.90;90.10;;;;;;5061009;28;20442;-40
2023/07/11 12:56:29;;;;;;;4.60;2.03;;;31.00;90.40;;;;;;5068424;28;20075;-40
2023/07/11 12:58:55;;;;;;;6.03;1.80;;;31.10;90.70;;;;;;5073577;28;20123;-40
2023/07/11 13:01:23;;;;;;;4.80;2.13;;;31.10;89.90;;;;;;5072819;28;20545;-41